createdAt,value
2022-11-09T00:02:16.797Z,1.40
2022-11-09T00:04:43.328Z,1.40
2022-11-09T00:07:10.000Z,1.55
2022-11-09T00:09:36.773Z,1.77
2022-11-09T00:12:05.002Z,1.48
2022-11-09T00:14:31.745Z,1.50
2022-11-09T00:16:58.373Z,1.60
2022-11-09T00:19:25.231Z,1.40
2022-11-09T00:21:52.161Z,1.38
2022-11-09T00:24:18.900Z,1.48
2022-11-09T00:26:45.640Z,1.25
2022-11-09T00:29:12.323Z,1.33
2022-11-09T00:31:39.024Z,1.27
2022-11-09T00:34:05.761Z,1.35
2022-11-09T00:36:33.115Z,1.40
2022-11-09T00:39:00.886Z,1.25
2022-11-09T00:41:28.138Z,1.80
2022-11-09T00:43:54.984Z,1.30
2022-11-09T00:46:21.928Z,1.30
2022-11-09T00:48:48.974Z,1.45
2022-11-09T00:51:15.834Z,1.58
2022-11-09T00:53:42.989Z,1.45
2022-11-09T00:56:12.884Z,1.48
2022-11-09T00:58:40.072Z,1.40
2022-11-09T01:01:17.519Z,1.33
2022-11-09T01:03:45.388Z,1.58
2022-11-09T01:06:23.091Z,1.50
2022-11-09T01:08:50.441Z,1.33
2022-11-09T01:11:18.818Z,1.60
2022-11-09T01:13:45.666Z,1.20
2022-11-09T01:16:17.728Z,1.35
2022-11-09T01:18:44.459Z,1.50
2022-11-09T01:21:12.907Z,2.35
2022-11-09T01:23:40.706Z,1.35
2022-11-09T01:26:09.514Z,1.52
2022-11-09T01:28:36.335Z,1.38
2022-11-09T01:31:05.093Z,1.73
2022-11-09T01:33:32.726Z,1.50
2022-11-09T01:36:19.904Z,1.63
2022-11-09T01:38:46.797Z,1.90
2022-11-09T01:41:19.221Z,1.63
2022-11-09T01:44:01.730Z,1.63
2022-11-09T01:46:35.042Z,1.35
2022-11-09T01:49:04.438Z,1.50
2022-11-09T01:51:37.924Z,1.23
2022-11-09T01:54:08.871Z,1.65
2022-11-09T01:56:35.507Z,1.40
2022-11-09T01:59:05.419Z,1.20
2022-11-09T02:01:32.452Z,1.58
2022-11-09T02:04:06.600Z,1.42
2022-11-09T02:06:33.484Z,1.35
2022-11-09T02:09:06.312Z,1.30
2022-11-09T02:11:33.868Z,1.65
2022-11-09T02:14:01.329Z,1.13
2022-11-09T02:16:28.267Z,1.48
2022-11-09T02:19:00.964Z,1.50
2022-11-09T02:21:30.001Z,1.60
2022-11-09T02:24:00.389Z,1.30
2022-11-09T02:26:35.303Z,1.30
2022-11-09T02:29:04.394Z,1.40
2022-11-09T02:31:35.374Z,1.60
2022-11-09T02:34:09.198Z,1.55
2022-11-09T02:36:36.086Z,1.50
2022-11-09T02:39:03.501Z,1.30
2022-11-09T02:41:31.149Z,1.27
2022-11-09T02:43:58.273Z,2.22
2022-11-09T02:46:26.797Z,2.03
2022-11-09T02:48:53.467Z,1.00
2022-11-09T02:51:20.116Z,1.38
2022-11-09T02:53:46.767Z,1.70
2022-11-09T02:56:13.479Z,1.45
2022-11-09T02:58:40.163Z,1.55
2022-11-09T03:01:07.105Z,1.42
2022-11-09T03:03:34.264Z,1.55
2022-11-09T03:06:00.965Z,1.00
2022-11-09T03:08:27.592Z,1.42
2022-11-09T03:10:54.254Z,1.58
2022-11-09T03:13:21.331Z,1.40
2022-11-09T03:15:48.131Z,1.40
2022-11-09T03:18:15.188Z,1.80
2022-11-09T03:20:41.788Z,1.40
2022-11-09T03:23:08.451Z,1.55
2022-11-09T03:25:35.129Z,1.52
2022-11-09T03:28:03.880Z,1.70
2022-11-09T03:30:31.231Z,1.60
2022-11-09T03:33:10.211Z,1.38
2022-11-09T03:35:37.437Z,1.60
2022-11-09T03:38:04.700Z,1.58
2022-11-09T03:40:32.053Z,1.30
2022-11-09T03:43:01.910Z,1.17
2022-11-09T03:45:28.650Z,1.58
2022-11-09T03:48:00.221Z,1.20
2022-11-09T03:50:29.052Z,1.60
2022-11-09T03:52:58.905Z,1.60
2022-11-09T03:55:26.075Z,1.00
2022-11-09T03:57:52.800Z,1.20
2022-11-09T04:00:21.200Z,1.55
2022-11-09T04:02:47.951Z,1.27
2022-11-09T04:05:15.497Z,1.40
2022-11-09T04:07:48.320Z,1.08
2022-11-09T04:10:15.103Z,1.60
2022-11-09T04:12:41.768Z,1.27
2022-11-09T04:15:08.784Z,1.35
2022-11-09T04:17:35.555Z,1.25
2022-11-09T04:20:02.277Z,1.48
2022-11-09T04:22:29.136Z,1.17
2022-11-09T04:24:55.745Z,1.40
2022-11-09T04:27:22.281Z,1.35
2022-11-09T04:29:48.841Z,1.10
2022-11-09T04:32:15.477Z,1.55
2022-11-09T04:34:41.995Z,1.42
2022-11-09T04:37:09.549Z,1.40
2022-11-09T04:39:36.395Z,1.30
2022-11-09T04:42:03.159Z,1.70
2022-11-09T04:44:29.953Z,1.45
2022-11-09T04:46:56.507Z,1.27
2022-11-09T04:49:23.070Z,1.20
2022-11-09T04:51:49.659Z,1.60
2022-11-09T04:54:16.245Z,1.30
2022-11-09T04:56:42.856Z,1.15
2022-11-09T04:59:09.625Z,1.48
2022-11-09T05:01:36.221Z,1.98
2022-11-09T05:04:02.923Z,1.10
2022-11-09T05:06:32.855Z,1.50
2022-11-09T05:09:01.884Z,1.42
2022-11-09T05:11:29.265Z,1.20
2022-11-09T05:13:56.025Z,1.33
2022-11-09T05:16:23.331Z,1.30
2022-11-09T05:18:50.564Z,1.30
2022-11-09T05:21:17.526Z,1.77
2022-11-09T05:23:59.741Z,1.38
2022-11-09T05:26:34.746Z,1.75
2022-11-09T05:29:04.114Z,2.15
2022-11-09T05:31:30.994Z,1.33
2022-11-09T05:33:57.884Z,1.58
2022-11-09T05:36:24.494Z,1.30
2022-11-09T05:38:51.207Z,1.50
2022-11-09T05:41:18.150Z,1.80
2022-11-09T05:43:45.690Z,1.60
2022-11-09T05:46:13.852Z,1.45
2022-11-09T05:48:41.745Z,1.70
2022-11-09T05:51:11.668Z,1.50
2022-11-09T05:53:41.173Z,1.58
2022-11-09T05:56:12.685Z,1.45
2022-11-09T05:58:39.428Z,1.73
2022-11-09T06:01:07.391Z,1.52
2022-11-09T06:03:34.095Z,1.70
2022-11-09T06:06:08.632Z,1.65
2022-11-09T06:08:35.776Z,1.90
2022-11-09T06:11:04.693Z,1.50
2022-11-09T06:13:31.308Z,1.73
2022-11-09T06:15:59.777Z,1.60
2022-11-09T06:18:28.370Z,1.58
2022-11-09T06:20:57.305Z,1.77
2022-11-09T06:23:27.376Z,1.80
2022-11-09T06:25:57.282Z,2.08
2022-11-09T06:28:23.895Z,1.73
2022-11-09T06:30:50.738Z,1.50
2022-11-09T06:33:17.636Z,1.90
2022-11-09T06:35:44.464Z,1.70
2022-11-09T06:38:14.091Z,1.52
2022-11-09T06:40:40.632Z,1.50
2022-11-09T06:43:07.282Z,1.52
2022-11-09T06:45:34.396Z,1.50
2022-11-09T06:48:03.133Z,1.65
2022-11-09T06:50:32.276Z,1.48
2022-11-09T06:53:03.658Z,1.80
2022-11-09T06:55:31.930Z,1.83
2022-11-09T06:57:58.913Z,1.48
2022-11-09T07:00:27.295Z,1.75
2022-11-09T07:02:54.204Z,1.92
2022-11-09T07:05:21.169Z,2.13
2022-11-09T07:07:48.014Z,2.20
2022-11-09T07:10:14.889Z,1.88
2022-11-09T07:12:41.692Z,1.70
2022-11-09T07:15:08.923Z,1.98
2022-11-09T07:17:37.273Z,1.83
2022-11-09T07:20:04.616Z,2.20
2022-11-09T07:22:31.294Z,1.95
2022-11-09T07:25:01.137Z,2.45
2022-11-09T07:27:28.511Z,1.85
2022-11-09T07:29:55.339Z,1.95
2022-11-09T07:32:31.083Z,2.03
2022-11-09T07:35:10.337Z,1.80
2022-11-09T07:37:37.387Z,1.65
2022-11-09T07:40:04.761Z,2.15
2022-11-09T07:42:31.561Z,2.15
2022-11-09T07:44:58.183Z,2.17
2022-11-09T07:47:24.832Z,2.20
2022-11-09T07:49:51.522Z,1.80
2022-11-09T07:52:18.203Z,2.28
2022-11-09T07:54:48.233Z,1.95
2022-11-09T07:57:17.681Z,2.05
2022-11-09T07:59:44.878Z,2.08
2022-11-09T08:02:12.986Z,2.45
2022-11-09T08:04:39.736Z,2.45
2022-11-09T08:07:06.614Z,2.35
2022-11-09T08:09:33.541Z,2.33
2022-11-09T08:12:00.438Z,2.40
2022-11-09T08:14:27.159Z,2.20
2022-11-09T08:16:55.124Z,1.98
2022-11-09T08:19:21.923Z,2.60
2022-11-09T08:21:48.721Z,2.35
2022-11-09T08:24:15.470Z,1.70
2022-11-09T08:26:42.287Z,2.08
2022-11-09T08:29:08.937Z,2.53
2022-11-09T08:31:35.844Z,2.58
2022-11-09T08:34:02.647Z,1.90
2022-11-09T08:36:30.087Z,2.70
2022-11-09T08:38:59.491Z,2.08
2022-11-09T08:41:26.595Z,2.25
2022-11-09T08:43:53.477Z,2.53
2022-11-09T08:46:20.317Z,2.20
2022-11-09T08:48:47.721Z,2.10
2022-11-09T08:51:14.477Z,2.45
2022-11-09T08:53:41.319Z,2.25
2022-11-09T08:56:08.727Z,2.13
2022-11-09T08:58:36.367Z,1.98
2022-11-09T09:01:09.935Z,2.30
2022-11-09T09:03:40.624Z,2.92
2022-11-09T09:06:08.103Z,2.17
2022-11-09T09:08:35.052Z,2.10
2022-11-09T09:11:03.503Z,1.83
2022-11-09T09:13:30.843Z,2.38
2022-11-09T09:15:57.587Z,2.50
2022-11-09T09:18:24.533Z,2.20
2022-11-09T09:20:51.849Z,2.20
2022-11-09T09:23:18.491Z,2.17
2022-11-09T09:25:45.297Z,2.42
2022-11-09T09:28:11.897Z,2.40
2022-11-09T09:30:38.578Z,2.70
2022-11-09T09:33:05.174Z,2.25
2022-11-09T09:35:31.851Z,2.00
2022-11-09T09:37:58.672Z,2.28
2022-11-09T09:40:41.265Z,2.60
2022-11-09T09:43:25.346Z,2.13
2022-11-09T09:45:53.855Z,2.10
2022-11-09T09:48:33.142Z,2.95
2022-11-09T09:51:04.818Z,2.13
2022-11-09T09:53:45.855Z,2.00
2022-11-09T09:56:18.635Z,2.17
2022-11-09T09:58:50.183Z,2.05
2022-11-09T10:01:20.009Z,2.60
2022-11-09T10:03:48.583Z,2.95
2022-11-09T10:06:40.871Z,3.13
2022-11-09T10:09:27.087Z,2.75
2022-11-09T10:12:13.120Z,2.45
2022-11-09T10:14:49.831Z,2.58
2022-11-09T10:17:25.821Z,2.60
2022-11-09T10:19:58.071Z,3.10
2022-11-09T10:22:50.552Z,2.80
2022-11-09T10:25:50.166Z,2.33
2022-11-09T10:28:16.448Z,2.63
2022-11-09T10:30:43.321Z,2.28
2022-11-09T10:33:23.310Z,2.40
2022-11-09T10:36:07.857Z,2.65
2022-11-09T10:38:44.214Z,2.15
2022-11-09T10:41:41.192Z,2.60
2022-11-09T10:44:17.804Z,2.50
2022-11-09T10:47:06.890Z,2.33
2022-11-09T10:49:36.918Z,2.20
2022-11-09T10:52:04.640Z,2.33
2022-11-09T10:54:38.031Z,2.38
2022-11-09T10:57:13.602Z,1.88
2022-11-09T10:59:50.406Z,2.00
2022-11-09T11:02:27.331Z,1.85
2022-11-09T11:04:59.697Z,1.83
2022-11-09T11:07:26.305Z,1.98
2022-11-09T11:09:53.557Z,1.65
2022-11-09T11:12:23.848Z,2.08
2022-11-09T11:14:50.536Z,1.92
2022-11-09T11:17:37.236Z,2.03
2022-11-09T11:20:33.346Z,1.77
2022-11-09T11:23:38.666Z,1.83
2022-11-09T11:26:23.184Z,1.95
2022-11-09T11:28:58.778Z,1.58
2022-11-09T11:31:25.402Z,1.40
2022-11-09T11:33:54.695Z,1.65
2022-11-09T11:36:44.316Z,1.95
2022-11-09T11:39:15.838Z,1.60
2022-11-09T11:42:12.388Z,1.65
2022-11-09T11:44:47.896Z,2.28
2022-11-09T11:47:36.325Z,1.70
2022-11-09T11:50:30.720Z,1.60
2022-11-09T11:53:22.641Z,1.65
2022-11-09T11:55:59.485Z,1.70
2022-11-09T11:58:38.292Z,1.30
2022-11-09T12:01:07.492Z,1.42
2022-11-09T12:03:40.645Z,1.63
2022-11-09T12:06:18.162Z,1.45
2022-11-09T12:08:55.178Z,1.60
2022-11-09T12:11:40.300Z,1.63
2022-11-09T12:14:15.964Z,1.65
2022-11-09T12:16:54.114Z,1.70
2022-11-09T12:19:52.734Z,1.80
2022-11-09T12:22:40.841Z,1.25
2022-11-09T12:25:31.717Z,2.47
2022-11-09T12:28:01.416Z,1.48
2022-11-09T12:30:38.350Z,1.65
2022-11-09T12:33:09.944Z,1.60
2022-11-09T12:35:41.313Z,1.50
2022-11-09T12:38:18.809Z,1.55
2022-11-09T12:41:05.490Z,1.80
2022-11-09T12:43:40.012Z,1.30
2022-11-09T12:46:07.114Z,1.45
2022-11-09T12:48:35.449Z,1.58
2022-11-09T12:51:04.543Z,1.63
2022-11-09T12:53:40.463Z,1.60
2022-11-09T12:56:24.385Z,1.30
2022-11-09T12:58:51.557Z,1.52
2022-11-09T13:01:35.090Z,1.35
2022-11-09T13:04:03.559Z,1.83
2022-11-09T13:06:33.211Z,1.92
2022-11-09T13:09:05.741Z,1.40
2022-11-09T13:11:42.043Z,1.73
2022-11-09T13:14:34.882Z,1.15
2022-11-09T13:17:28.828Z,1.23
2022-11-09T13:19:57.103Z,1.25
2022-11-09T13:22:23.797Z,1.52
2022-11-09T13:25:02.162Z,1.08
2022-11-09T13:27:37.534Z,1.20
2022-11-09T13:30:24.639Z,1.75
2022-11-09T13:33:06.301Z,2.20
2022-11-09T13:35:41.918Z,1.88
2022-11-09T13:38:18.773Z,1.55
2022-11-09T13:40:53.293Z,1.52
2022-11-09T13:43:31.920Z,1.40
2022-11-09T13:46:03.158Z,1.33
2022-11-09T13:48:44.476Z,1.42
2022-11-09T13:51:16.672Z,1.15
2022-11-09T13:54:05.976Z,1.33
2022-11-09T13:56:40.497Z,1.25
2022-11-09T13:59:21.573Z,1.55
2022-11-09T14:01:49.498Z,1.45
2022-11-09T14:04:26.771Z,1.17
2022-11-09T14:07:01.696Z,1.63
2022-11-09T14:09:32.395Z,1.25
2022-11-09T14:12:12.037Z,1.17
2022-11-09T14:14:49.393Z,1.10
2022-11-09T14:17:36.585Z,1.52
2022-11-09T14:20:26.539Z,1.10
2022-11-09T14:22:53.381Z,1.38
2022-11-09T14:25:23.700Z,1.50
2022-11-09T14:27:57.470Z,1.60
2022-11-09T14:30:28.480Z,1.42
2022-11-09T14:32:56.317Z,1.67
2022-11-09T14:35:23.153Z,1.30
2022-11-09T14:37:51.323Z,1.33
2022-11-09T14:40:32.207Z,1.27
2022-11-09T14:43:10.709Z,1.30
2022-11-09T14:45:37.650Z,1.60
2022-11-09T14:48:04.600Z,1.42
2022-11-09T14:50:36.507Z,1.00
2022-11-09T14:53:04.636Z,1.15
2022-11-09T14:55:32.498Z,1.30
2022-11-09T14:57:59.445Z,1.70
2022-11-09T15:00:35.095Z,1.70
2022-11-09T15:03:22.519Z,1.50
2022-11-09T15:05:49.461Z,1.90
2022-11-09T15:08:21.491Z,1.77
2022-11-09T15:10:50.832Z,1.52
2022-11-09T15:13:18.705Z,1.20
2022-11-09T15:15:53.783Z,1.38
2022-11-09T15:18:33.473Z,1.42
2022-11-09T15:21:34.525Z,1.60
2022-11-09T15:24:10.006Z,1.40
2022-11-09T15:26:39.982Z,2.08
2022-11-09T15:29:42.457Z,1.42
2022-11-09T15:32:16.787Z,1.42
2022-11-09T15:35:03.801Z,1.98
2022-11-09T15:37:46.644Z,1.70
2022-11-09T15:40:16.951Z,1.35
2022-11-09T15:42:46.237Z,1.90
2022-11-09T15:45:19.544Z,1.75
2022-11-09T15:47:56.403Z,2.08
2022-11-09T15:50:26.670Z,1.60
2022-11-09T15:52:53.411Z,2.03
2022-11-09T15:55:22.199Z,1.52
2022-11-09T15:57:50.368Z,1.70
2022-11-09T16:00:20.978Z,1.48
2022-11-09T16:02:48.204Z,1.92
2022-11-09T16:05:16.211Z,1.60
2022-11-09T16:07:50.708Z,1.92
2022-11-09T16:10:20.451Z,1.88
2022-11-09T16:12:47.672Z,1.42
2022-11-09T16:15:14.412Z,2.00
2022-11-09T16:17:41.373Z,1.80
2022-11-09T16:20:08.512Z,1.80
2022-11-09T16:22:35.141Z,1.90
2022-11-09T16:25:01.998Z,1.83
2022-11-09T16:27:49.140Z,1.63
2022-11-09T16:30:15.858Z,1.52
2022-11-09T16:32:42.643Z,2.05
2022-11-09T16:37:57.377Z,5.47
2022-11-09T16:40:24.205Z,2.90
2022-11-09T16:42:51.968Z,1.88
2022-11-09T16:45:18.848Z,2.15
2022-11-09T16:47:48.203Z,2.45
2022-11-09T16:50:15.360Z,2.15
2022-11-09T16:52:42.158Z,2.92
2022-11-09T16:55:09.764Z,2.40
2022-11-09T16:57:36.814Z,2.38
2022-11-09T17:00:05.798Z,2.80
2022-11-09T17:02:32.639Z,2.70
2022-11-09T17:04:59.381Z,2.75
2022-11-09T17:07:26.941Z,2.20
2022-11-09T17:09:53.692Z,2.30
2022-11-09T17:12:20.558Z,2.50
2022-11-09T17:14:47.263Z,2.75
2022-11-09T17:17:18.188Z,2.58
2022-11-09T17:19:48.127Z,2.42
2022-11-09T17:22:14.963Z,3.88
2022-11-09T17:24:41.748Z,3.63
2022-11-09T17:27:09.729Z,3.33
2022-11-09T17:29:37.950Z,3.20
2022-11-09T17:32:08.894Z,3.47
2022-11-09T17:34:36.158Z,5.32
2022-11-09T17:37:05.252Z,2.85
2022-11-09T17:39:33.116Z,6.78
2022-11-09T17:41:59.859Z,4.20
2022-11-09T17:44:26.643Z,3.03
2022-11-09T17:46:53.539Z,2.58
2022-11-09T17:49:20.267Z,2.40
2022-11-09T17:51:47.114Z,2.65
2022-11-09T17:54:15.204Z,1.98
2022-11-09T17:56:42.550Z,2.35
2022-11-09T17:59:09.708Z,2.10
2022-11-09T18:01:41.948Z,3.20
2022-11-09T18:04:10.549Z,2.55
2022-11-09T18:06:38.270Z,2.30
2022-11-09T18:11:52.472Z,2.30
2022-11-09T18:14:20.152Z,2.45
2022-11-09T18:16:47.174Z,1.88
2022-11-09T18:19:14.257Z,2.00
2022-11-09T18:21:41.681Z,1.77
2022-11-09T18:24:08.839Z,1.33
2022-11-09T18:26:35.576Z,1.42
2022-11-09T18:29:02.230Z,1.50
2022-11-09T18:31:28.968Z,1.20
2022-11-09T18:33:55.713Z,1.67
2022-11-09T18:36:23.595Z,1.55
2022-11-09T18:38:53.118Z,1.10
2022-11-09T18:41:22.268Z,1.00
2022-11-09T18:43:50.441Z,0.90
2022-11-09T18:46:18.927Z,1.00
2022-11-09T18:48:46.088Z,0.90
2022-11-09T18:51:13.100Z,0.98
2022-11-09T18:53:42.296Z,0.85
2022-11-09T18:56:19.261Z,0.77
2022-11-09T18:58:46.552Z,0.80
2022-11-09T19:01:13.664Z,1.10
2022-11-09T19:03:40.424Z,1.13
2022-11-09T19:06:09.712Z,1.02
2022-11-09T19:08:54.786Z,1.15
2022-11-09T19:11:21.532Z,0.80
2022-11-09T19:13:48.350Z,1.13
2022-11-09T19:16:15.701Z,1.30
2022-11-09T19:18:42.776Z,1.30
2022-11-09T19:21:37.045Z,1.55
2022-11-09T19:24:04.254Z,1.33
2022-11-09T19:26:30.989Z,1.30
2022-11-09T19:28:58.099Z,1.30
2022-11-09T19:31:25.149Z,1.20
2022-11-09T19:33:52.736Z,1.83
2022-11-09T19:36:30.052Z,1.02
2022-11-09T19:38:58.171Z,1.20
2022-11-09T19:41:38.082Z,1.10
2022-11-09T19:44:06.223Z,1.30
2022-11-09T19:46:35.932Z,1.55
2022-11-09T19:49:04.560Z,1.20
2022-11-09T19:51:31.941Z,2.05
2022-11-09T19:54:00.290Z,1.35
2022-11-09T19:56:29.146Z,1.73
2022-11-09T19:58:58.312Z,2.35
2022-11-09T20:01:25.250Z,1.80
2022-11-09T20:03:54.291Z,1.60
2022-11-09T20:06:22.079Z,1.42
2022-11-09T20:08:49.147Z,1.30
2022-11-09T20:11:41.339Z,1.60
2022-11-09T20:14:10.016Z,1.88
2022-11-09T20:16:37.739Z,1.90
2022-11-09T20:19:05.332Z,2.10
2022-11-09T20:21:32.430Z,2.00
2022-11-09T20:23:59.265Z,2.05
2022-11-09T20:26:26.168Z,2.20
2022-11-09T20:28:54.118Z,2.10
2022-11-09T20:31:21.800Z,2.20
2022-11-09T20:33:49.030Z,2.30
2022-11-09T20:36:15.761Z,2.05
2022-11-09T20:38:44.081Z,2.25
2022-11-09T20:41:11.949Z,2.67
2022-11-09T20:43:39.058Z,2.40
2022-11-09T20:46:08.352Z,2.80
2022-11-09T20:51:22.627Z,3.03
2022-11-09T20:53:50.935Z,3.50
2022-11-09T20:56:18.840Z,2.45
2022-11-09T20:58:45.945Z,3.03
2022-11-09T21:01:25.072Z,2.33
2022-11-09T21:03:53.232Z,2.90
2022-11-09T21:06:21.397Z,3.20
2022-11-09T21:08:55.932Z,2.72
2022-11-09T21:11:30.399Z,2.72
2022-11-09T21:13:57.624Z,2.85
2022-11-09T21:16:24.444Z,2.55
2022-11-09T21:18:52.465Z,2.83
2022-11-09T21:21:21.492Z,2.28
2022-11-09T21:24:07.016Z,3.17
2022-11-09T21:26:52.821Z,2.47
2022-11-09T21:29:42.368Z,2.90
2022-11-09T21:32:11.100Z,2.90
2022-11-09T21:34:41.179Z,2.88
2022-11-09T21:37:10.097Z,2.67
2022-11-09T21:39:37.336Z,2.95
2022-11-09T21:42:05.925Z,2.75
2022-11-09T21:44:33.996Z,2.92
2022-11-09T21:47:02.325Z,2.42
2022-11-09T21:49:29.765Z,2.72
2022-11-09T21:51:56.974Z,2.65
2022-11-09T21:54:24.329Z,2.58
2022-11-09T21:56:54.359Z,2.50
2022-11-09T21:59:21.298Z,1.90
2022-11-09T22:01:48.130Z,2.00
2022-11-09T22:04:15.394Z,1.60
2022-11-09T22:06:43.599Z,2.10
2022-11-09T22:09:17.993Z,1.58
2022-11-09T22:12:06.656Z,1.65
2022-11-09T22:14:51.822Z,1.55
2022-11-09T22:17:18.662Z,1.50
2022-11-09T22:20:04.136Z,1.40
2022-11-09T22:22:32.429Z,1.38
2022-11-09T22:24:59.478Z,1.27
2022-11-09T22:27:26.920Z,1.65
2022-11-09T22:29:53.761Z,1.48
2022-11-09T22:32:21.663Z,1.30
2022-11-09T22:34:48.772Z,1.23
2022-11-09T22:37:15.996Z,1.17
2022-11-09T22:39:47.047Z,1.58
2022-11-09T22:42:14.543Z,1.42
2022-11-09T22:44:41.267Z,1.13
2022-11-09T22:47:08.176Z,1.42
2022-11-09T22:49:36.931Z,1.30
2022-11-09T22:52:04.700Z,1.23
2022-11-09T22:54:31.403Z,1.65
2022-11-09T22:56:58.207Z,1.23
2022-11-09T22:59:24.838Z,1.00
2022-11-09T23:01:51.706Z,1.25
2022-11-09T23:04:18.664Z,1.38
2022-11-09T23:06:45.474Z,1.00
2022-11-09T23:09:12.269Z,1.20
2022-11-09T23:11:39.102Z,1.42
2022-11-09T23:14:05.834Z,1.05
2022-11-09T23:16:32.624Z,1.10
2022-11-09T23:18:59.364Z,1.30
2022-11-09T23:21:29.760Z,1.33
2022-11-09T23:23:58.955Z,1.20
2022-11-09T23:26:26.291Z,0.98
2022-11-09T23:28:53.646Z,1.13
2022-11-09T23:31:24.811Z,1.42
2022-11-09T23:33:54.508Z,1.00
2022-11-09T23:36:22.467Z,0.60
2022-11-09T23:38:49.191Z,0.90
2022-11-09T23:41:16.099Z,0.90
2022-11-09T23:43:48.673Z,0.82
2022-11-09T23:46:16.539Z,1.17
2022-11-09T23:48:43.454Z,0.93
2022-11-09T23:51:10.102Z,1.02
2022-11-09T23:53:37.274Z,1.45
2022-11-09T23:56:09.503Z,1.20
2022-11-09T23:58:36.807Z,1.08
